Allen, Maryland
Current Conditions -  °F | °C
As of 9:54 PM on Wednesday 22 Oct 2014 (Local Time) from KSBY Reporting Station
Overcast Overcast  
Wind Chill: 56°   Ceiling: 1900
Heat Index: 56°   Visibility: 10mi
Dew Point: 49°   Wind: 17mph
Humidity: 77%   Direction: 320°NW
Pressure: 29.83"   Gusts: 29mph
Location:  38.29°N, 75.69°W
Report Text: KSBY 230154Z 32015G25KT 280V340 10SM BKN019 OVC025 13/09 A2983 RMK AO2 RAE31 SLP102 P0000 T01330094
Loading
Personal Weather Stations






























Interactive Weather Map New forecast layout! Learn more

10-Day Weather Forecast

Advertisements
Track Severe Weather on mobile